Time;durP1;ratioP1;P1;durP2;ratioP2;P2;SDS_P1;SDS_P2;PMS_P1;PMS_P2;Temp;Humidity;BMP_temperature;BMP_pressure;BME280_temperature;BME280_humidity;BME280_pressure;Samples;Min_cycle;Max_cycle;Signal;HPM_P1;HPM_P2
2023/03/26 00:00:53;;;;;;;;;;;;;;;9.71;100.00;99565.50;5034010;28;20483;-40
2023/03/26 00:03:19;;;;;;;;;;;;;;;9.68;100.00;99575.88;5031151;28;20273;-40
2023/03/26 00:05:47;;;;;;;;;;;;;;;9.74;100.00;99579.16;5047401;28;20286;-40
2023/03/26 00:08:12;;;;;;;;;;;;;;;10.20;100.00;99598.81;5032697;28;20279;-40
2023/03/26 00:10:38;;;;;;;;;;;;;;;11.00;100.00;99606.53;5034174;28;19921;-40
2023/03/26 00:13:04;;;;;;;;;;;;;;;10.13;100.00;99506.34;5037024;28;19925;-40
2023/03/26 00:15:29;;;;;;;;;;;;;;;10.48;100.00;99491.84;5033561;28;19924;-40
2023/03/26 00:17:55;;;;;;;;;;;;;;;10.26;100.00;99458.81;5036995;28;19935;-40
2023/03/26 00:20:20;;;;;;;;;;;;;;;10.27;100.00;99479.38;5036811;28;20302;-40
2023/03/26 00:22:46;;;;;;;;;;;;;;;10.43;100.00;99477.34;5037074;28;20186;-40
2023/03/26 00:25:12;;;;;;;;;;;;;;;10.07;100.00;99463.56;5035636;28;19921;-40
2023/03/26 00:27:37;;;;;;;;;;;;;;;10.15;100.00;99505.41;5037537;28;20226;-40
2023/03/26 00:30:03;;;;;;;;;;;;;;;10.56;100.00;99523.38;5036590;28;19928;-40
2023/03/26 00:32:29;;;;;;;;;;;;;;;10.64;100.00;99534.38;5035967;28;19920;-40
2023/03/26 00:34:54;;;;;;;;;;;;;;;10.08;100.00;99492.69;5034272;28;19944;-40
2023/03/26 00:37:25;;;;;;;;;;;;;;;10.02;100.00;99501.41;5037837;28;19986;-40
2023/03/26 00:39:50;;;;;;;;;;;;;;;10.41;100.00;99524.59;5037365;28;19920;-40
2023/03/26 00:42:15;;;;;;;;;;;;;;;9.76;100.00;99476.22;5035699;28;20004;-40
2023/03/26 00:44:41;;;;;;;;;;;;;;;10.38;100.00;99525.53;5034327;28;20378;-40
2023/03/26 00:47:06;;;;;;;;;;;;;;;9.86;100.00;99511.19;5036235;28;20385;-40
2023/03/26 00:49:31;;;;;;;;;;;;;;;10.88;100.00;99569.84;5037053;28;19995;-40
2023/03/26 00:51:57;;;;;;;;;;;;;;;10.48;100.00;99530.47;5035476;28;19966;-40
2023/03/26 00:54:22;;;;;;;;;;;;;;;10.35;100.00;99512.69;5036050;28;20465;-40
2023/03/26 00:56:47;;;;;;;;;;;;;;;10.17;100.00;99495.06;5037303;28;20671;-40
2023/03/26 00:59:12;;;;;;;;;;;;;;;10.21;100.00;99530.16;5036162;28;20386;-40
2023/03/26 01:01:38;;;;;;;;;;;;;;;9.67;100.00;99482.44;5035437;28;20397;-40
2023/03/26 01:04:18;;;;;;;;;;;;;;;10.20;100.00;99533.63;5036206;28;20405;-40
2023/03/26 01:06:44;;;;;;;;;;;;;;;10.74;100.00;99532.41;5035811;28;19951;-40
2023/03/26 01:09:14;;;;;;;;;;;;;;;10.62;100.00;99546.44;5036614;28;20301;-40
2023/03/26 01:11:39;;;;;;;;;;;;;;;9.98;100.00;99528.94;5034006;28;20095;-40
2023/03/26 01:14:06;;;;;;;;;;;;;;;10.68;100.00;99577.22;5036279;28;19940;-40
2023/03/26 01:16:40;;;;;;;;;;;;;;;10.65;100.00;99521.47;5035221;28;20004;-40
2023/03/26 01:19:09;;;;;;;;;;;;;;;10.65;100.00;99505.13;5035713;28;19928;-40
2023/03/26 01:21:34;;;;;;;;;;;;;;;10.72;100.00;99516.16;5033611;28;19920;-40
2023/03/26 01:24:04;;;;;;;;;;;;;;;10.64;100.00;99494.00;5034462;28;19946;-40
2023/03/26 01:26:48;;;;;;;;;;;;;;;10.21;100.00;99453.78;5036221;28;19917;-40
2023/03/26 01:29:28;;;;;;;;;;;;;;;9.88;100.00;99496.56;5035445;28;19921;-40
2023/03/26 01:32:14;;;;;;;;;;;;;;;10.14;100.00;99521.72;5031842;28;19921;-41
2023/03/26 01:34:39;;;;;;;;;;;;;;;10.89;100.00;99574.13;5024662;28;19947;-40
2023/03/26 01:37:05;;;;;;;;;;;;;;;10.54;100.00;99544.06;5035433;28;19921;-40
2023/03/26 01:39:30;;;;;;;;;;;;;;;10.04;100.00;99520.25;5034561;28;19974;-40
2023/03/26 01:42:01;;;;;;;;;;;;;;;10.80;100.00;99553.72;5033940;28;20498;-40
2023/03/26 01:44:45;;;;;;;;;;;;;;;11.08;100.00;99535.00;5031369;28;19928;-40
2023/03/26 01:47:10;;;;;;;;;;;;;;;10.41;100.00;99491.13;5036448;28;20373;-40
2023/03/26 01:49:36;;;;;;;;;;;;;;;10.09;100.00;99500.41;5034344;28;19923;-40
2023/03/26 01:52:01;;;;;;;;;;;;;;;10.39;100.00;99513.50;5033753;28;20271;-40
2023/03/26 01:54:27;;;;;;;;;;;;;;;10.42;100.00;99518.56;5033191;28;20082;-40
2023/03/26 01:56:57;;;;;;;;;;;;;;;10.51;100.00;99492.59;5033192;28;20339;-40
2023/03/26 01:59:40;;;;;;;;;;;;;;;10.66;100.00;99460.47;5032157;28;20366;-40
2023/03/26 02:02:06;;;;;;;;;;;;;;;10.70;100.00;99436.34;5036311;28;20246;-40
2023/03/26 02:04:31;;;;;;;;;;;;;;;10.75;100.00;99443.97;5034081;28;20011;-40
2023/03/26 02:07:04;;;;;;;;;;;;;;;10.62;100.00;99431.38;5035438;28;19978;-40
2023/03/26 02:09:30;;;;;;;;;;;;;;;10.36;100.00;99421.72;5032179;28;20134;-40
2023/03/26 02:11:55;;;;;;;;;;;;;;;11.53;100.00;99472.78;5033841;28;19924;-40
2023/03/26 02:14:20;;;;;;;;;;;;;;;11.71;100.00;99402.56;5033196;28;19925;-40
2023/03/26 02:16:46;;;;;;;;;;;;;;;10.68;100.00;99281.00;5033955;28;20444;-40
2023/03/26 02:19:14;;;;;;;;;;;;;;;10.40;100.00;99279.19;5033553;28;20012;-40
2023/03/26 02:21:40;;;;;;;;;;;;;;;10.78;100.00;99344.22;5035399;28;20003;-40
2023/03/26 02:24:05;;;;;;;;;;;;;;;10.82;100.00;99358.72;5034273;28;20012;-40
2023/03/26 02:26:31;;;;;;;;;;;;;;;10.56;100.00;99315.66;5035004;28;19913;-40
2023/03/26 02:28:57;;;;;;;;;;;;;;;10.75;100.00;99308.25;5033734;28;20105;-40
2023/03/26 02:31:25;;;;;;;;;;;;;;;11.32;100.00;99341.88;5034699;28;20353;-40
2023/03/26 02:33:50;;;;;;;;;;;;;;;11.34;100.00;99319.47;5034534;28;19931;-40
2023/03/26 02:36:17;;;;;;;;;;;;;;;11.86;100.00;99258.47;5033455;28;20282;-40
2023/03/26 02:38:42;;;;;;;;;;;;;;;12.10;100.00;99223.28;5033634;28;20724;-40
2023/03/26 02:41:07;;;;;;;;;;;;;;;10.93;100.00;99087.06;5035301;28;19943;-40
2023/03/26 02:43:32;;;;;;;;;;;;;;;11.19;100.00;99111.97;5032579;28;19916;-40
2023/03/26 02:45:58;;;;;;;;;;;;;;;11.02;100.00;99148.59;5034309;28;20168;-40
2023/03/26 02:48:23;;;;;;;;;;;;;;;11.01;100.00;99163.19;5034310;28;19929;-40
2023/03/26 02:50:54;;;;;;;;;;;;;;;10.59;100.00;99142.19;5035207;28;20052;-40
2023/03/26 02:53:28;;;;;;;;;;;;;;;10.74;100.00;99190.66;5034942;28;20477;-40
2023/03/26 02:55:54;;;;;;;;;;;;;;;11.07;100.00;99226.59;5033161;28;19924;-40
2023/03/26 02:58:19;;;;;;;;;;;;;;;10.38;100.00;99233.75;5034677;28;19936;-40
2023/03/26 03:00:45;;;;;;;;;;;;;;;10.59;100.00;99264.06;5032289;28;19931;-41
2023/03/26 03:03:11;;;;;;;;;;;;;;;11.31;100.00;99284.28;5034752;28;20369;-40
2023/03/26 03:05:37;;;;;;;;;;;;;;;10.89;100.00;99203.06;5033999;28;19925;-40
2023/03/26 03:08:04;;;;;;;;;;;;;;;11.49;100.00;99228.72;5032973;28;21503;-40
2023/03/26 03:10:31;;;;;;;;;;;;;;;11.40;100.00;99180.03;5034371;28;19921;-40
2023/03/26 03:12:57;;;;;;;;;;;;;;;10.70;100.00;99144.41;5034899;28;19932;-40
2023/03/26 03:15:22;;;;;;;;;;;;;;;11.52;100.00;99195.13;5032444;28;19921;-40
2023/03/26 03:17:47;;;;;;;;;;;;;;;11.21;100.00;99162.56;5033120;28;20098;-40
2023/03/26 03:20:12;;;;;;;;;;;;;;;11.79;100.00;99146.06;5033573;28;19935;-40
2023/03/26 03:22:38;;;;;;;;;;;;;;;11.91;100.00;99084.56;5034379;28;19917;-40
2023/03/26 03:25:04;;;;;;;;;;;;;;;10.82;100.00;98998.06;5033431;28;19917;-40
2023/03/26 03:27:29;;;;;;;;;;;;;;;11.89;100.00;99033.91;5034179;28;20128;-40
2023/03/26 03:29:54;;;;;;;;;;;;;;;11.12;100.00;98990.19;5032166;28;19964;-40
2023/03/26 03:32:21;;;;;;;;;;;;;;;11.52;100.00;99030.88;5035415;28;19916;-40
2023/03/26 03:34:48;;;;;;;;;;;;;;;11.96;100.00;98994.06;5032939;28;19925;-40
2023/03/26 03:37:14;;;;;;;;;;;;;;;11.93;100.00;98921.94;5032989;28;20218;-40
2023/03/26 03:39:39;;;;;;;;;;;;;;;10.88;100.00;98888.81;5034056;28;20011;-40
2023/03/26 03:42:04;;;;;;;;;;;;;;;11.36;100.00;98902.56;5033654;28;19951;-40
2023/03/26 03:44:30;;;;;;;;;;;;;;;11.69;100.00;98924.50;5031552;28;19970;-40
2023/03/26 03:46:55;;;;;;;;;;;;;;;12.49;100.00;98887.00;5036824;28;19952;-40
2023/03/26 03:49:21;;;;;;;;;;;;;;;11.55;100.00;98818.44;5037101;28;20089;-47
2023/03/26 03:51:46;;;;;;;;;;;;;;;11.21;100.00;98840.34;5037206;28;19924;-40
2023/03/26 03:54:11;;;;;;;;;;;;;;;11.28;100.00;98875.31;5037737;28;19925;-40
2023/03/26 03:56:37;;;;;;;;;;;;;;;10.41;100.00;98879.22;5037072;28;20355;-40
2023/03/26 03:59:03;;;;;;;;;;;;;;;11.17;100.00;98990.03;5037990;28;19921;-40
2023/03/26 04:01:29;;;;;;;;;;;;;;;11.72;100.00;98996.66;5036458;28;19921;-41
2023/03/26 04:03:55;;;;;;;;;;;;;;;11.41;100.00;98945.34;5037026;28;19925;-40
2023/03/26 04:06:20;;;;;;;;;;;;;;;11.86;100.00;98969.47;5037826;28;19928;-46
2023/03/26 04:08:45;;;;;;;;;;;;;;;10.64;100.00;98931.69;5036743;28;19920;-40
2023/03/26 04:11:11;;;;;;;;;;;;;;;10.82;100.00;98987.75;5037807;28;20358;-40
2023/03/26 04:13:36;;;;;;;;;;;;;;;10.72;100.00;98990.66;5037336;28;19967;-40
2023/03/26 04:16:01;;;;;;;;;;;;;;;10.73;100.00;99003.50;5036441;28;20718;-40
2023/03/26 04:18:28;;;;;;;;;;;;;;;10.49;100.00;99004.28;5035917;28;20399;-40
2023/03/26 04:20:54;;;;;;;;;;;;;;;11.41;100.00;99025.28;5037310;28;19917;-41
2023/03/26 04:23:20;;;;;;;;;;;;;;;11.93;100.00;98964.06;5037285;28;20055;-40
2023/03/26 04:25:49;;;;;;;;;;;;;;;13.01;100.00;98905.44;5036984;28;19923;-40
2023/03/26 04:28:30;;;;;;;;;;;;;;;13.56;100.00;98734.00;5034659;28;20051;-40
2023/03/26 04:30:59;;;;;;;;;;;;;;;13.67;100.00;98570.47;5036965;28;19917;-41
2023/03/26 04:33:24;;;;;;;;;;;;;;;13.65;100.00;98461.03;5035605;28;19924;-40
2023/03/26 04:35:49;;;;;;;;;;;;;;;12.83;100.00;98372.16;5035712;28;20251;-40
2023/03/26 04:38:16;;;;;;;;;;;;;;;13.72;100.00;98372.63;5036149;28;20340;-40
2023/03/26 04:40:42;;;;;;;;;;;;;;;13.05;100.00;98288.34;5036525;28;20357;-40
2023/03/26 04:43:11;;;;;;;;;;;;;;;12.63;100.00;98277.56;5038093;28;19920;-40
2023/03/26 04:45:36;;;;;;;;;;;;;;;12.54;100.00;98335.72;5034547;28;20134;-40
2023/03/26 04:48:01;;;;;;;;;;;;;;;12.69;100.00;98374.59;5036442;28;20003;-41
2023/03/26 04:50:26;;;;;;;;;;;;;;;12.86;100.00;98374.56;5036727;28;20373;-40
2023/03/26 04:52:52;;;;;;;;;;;;;;;12.30;100.00;98362.78;5037328;28;20896;-40
2023/03/26 04:55:32;;;;;;;;;;;;;;;12.82;100.00;98367.91;5034572;28;20162;-40
2023/03/26 04:58:04;;;;;;;;;;;;;;;12.24;100.00;98370.81;5031537;28;20527;-40
2023/03/26 05:00:29;;;;;;;;;;;;;;;12.83;100.00;98395.41;5034703;28;20139;-41
2023/03/26 05:02:56;;;;;;;;;;;;;;;12.92;100.00;98351.00;5037769;28;20066;-40
2023/03/26 05:05:21;;;;;;;;;;;;;;;13.15;100.00;98316.19;5035732;28;19935;-41
2023/03/26 05:07:47;;;;;;;;;;;;;;;13.17;100.00;98266.97;5034507;28;19925;-40
2023/03/26 05:10:12;;;;;;;;;;;;;;;13.39;100.00;98223.53;5035997;28;19917;-40
2023/03/26 05:12:37;;;;;;;;;;;;;;;13.44;100.00;98181.06;5034854;28;19917;-40
2023/03/26 05:15:03;;;;;;;;;;;;;;;13.21;100.00;98149.56;5035744;28;20016;-40
2023/03/26 05:17:29;;;;;;;;;;;;;;;13.39;100.00;98145.97;5034691;28;20055;-40
2023/03/26 05:19:55;;;;;;;;;;;;;;;13.46;100.00;98099.06;5034673;28;19936;-41
2023/03/26 05:22:20;;;;;;;;;;;;;;;13.45;100.00;98074.09;5036263;28;19928;-40
2023/03/26 05:24:45;;;;;;;;;;;;;;;13.09;100.00;98058.03;5035834;28;20486;-40
2023/03/26 05:27:15;;;;;;;;;;;;;;;13.57;100.00;98063.88;5034839;28;20296;-40
2023/03/26 05:29:41;;;;;;;;;;;;;;;13.79;100.00;98026.34;5034583;28;19974;-40
2023/03/26 05:32:06;;;;;;;;;;;;;;;12.75;100.00;97994.53;5036107;28;19916;-40
2023/03/26 05:34:31;;;;;;;;;;;;;;;13.15;100.00;98018.03;5035538;28;20202;-40
2023/03/26 05:36:56;;;;;;;;;;;;;;;12.55;100.00;98032.63;5035479;28;19921;-40
2023/03/26 05:39:25;;;;;;;;;;;;;;;11.04;100.00;98100.66;5031374;28;19925;-40
2023/03/26 05:41:51;;;;;;;;;;;;;;;11.43;100.00;98184.69;5034149;28;19991;-40
2023/03/26 05:44:16;;;;;;;;;;;;;;;11.39;100.00;98255.31;5033417;28;20258;-49
2023/03/26 05:46:42;;;;;;;;;;;;;;;11.85;100.00;98269.41;5035187;28;20389;-40
2023/03/26 05:49:07;;;;;;;;;;;;;;;12.37;100.00;98260.03;5034974;28;19995;-40
2023/03/26 05:51:32;;;;;;;;;;;;;;;13.30;100.00;98229.22;5035202;28;20249;-40
2023/03/26 05:53:57;;;;;;;;;;;;;;;13.29;100.00;98120.69;5034976;28;20006;-40
2023/03/26 05:56:23;;;;;;;;;;;;;;;13.66;100.00;98072.00;5033738;28;19948;-40
2023/03/26 05:58:48;;;;;;;;;;;;;;;13.30;100.00;98030.13;5031499;28;19971;-41
2023/03/26 06:01:16;;;;;;;;;;;;;;;13.45;100.00;98010.25;5035175;28;19940;-40
2023/03/26 06:03:43;;;;;;;;;;;;;;;13.64;100.00;97991.03;5035524;28;19920;-40
2023/03/26 06:06:09;;;;;;;;;;;;;;;13.75;100.00;97970.53;5034448;28;19925;-40
2023/03/26 06:08:34;;;;;;;;;;;;;;;13.93;100.00;97945.28;5034356;28;19921;-40
2023/03/26 06:11:00;;;;;;;;;;;;;;;13.91;100.00;97916.91;5034482;28;19920;-40
2023/03/26 06:13:25;;;;;;;;;;;;;;;13.92;100.00;97891.84;5035125;28;19928;-40
2023/03/26 06:15:51;;;;;;;;;;;;;;;14.09;100.00;97878.66;5033907;28;19920;-40
2023/03/26 06:18:16;;;;;;;;;;;;;;;14.14;100.00;97880.94;5035038;28;19928;-40
2023/03/26 06:20:42;;;;;;;;;;;;;;;13.86;100.00;97856.00;5035197;28;19928;-40
2023/03/26 06:23:07;;;;;;;;;;;;;;;12.75;100.00;97898.94;5033766;28;19970;-40
2023/03/26 06:25:32;;;;;;;;;;;;;;;13.47;100.00;97946.34;5033934;28;19920;-40
2023/03/26 06:27:58;;;;;;;;;;;;;;;13.81;100.00;97916.63;5035682;28;19920;-40
2023/03/26 06:30:23;;;;;;;;;;;;;;;13.97;100.00;97889.81;5034791;28;19916;-40
2023/03/26 06:32:48;;;;;;;;;;;;;;;14.09;100.00;97868.28;5033671;28;19964;-40
2023/03/26 06:35:13;;;;;;;;;;;;;;;13.03;100.00;97876.63;5034590;28;19986;-40
2023/03/26 06:37:39;;;;;;;;;;;;;;;13.04;100.00;97914.44;5034504;28;19928;-40
2023/03/26 06:40:04;;;;;;;;;;;;;;;13.55;100.00;97912.28;5035361;28;19936;-40
2023/03/26 06:42:30;;;;;;;;;;;;;;;13.46;100.00;97899.91;5033579;28;21630;-40
2023/03/26 06:44:55;;;;;;;;;;;;;;;13.19;100.00;97913.53;5032413;28;20484;-40
2023/03/26 06:47:20;;;;;;;;;;;;;;;12.73;100.00;97931.78;5035110;28;20440;-40
2023/03/26 06:49:45;;;;;;;;;;;;;;;12.85;100.00;97953.47;5034139;28;20354;-40
2023/03/26 06:52:11;;;;;;;;;;;;;;;12.19;100.00;97999.31;5034544;28;20374;-40
2023/03/26 06:54:37;;;;;;;;;;;;;;;11.82;100.00;98041.72;5032842;28;19929;-39
2023/03/26 06:57:02;;;;;;;;;;;;;;;11.02;100.00;98066.38;5033154;28;19963;-40
2023/03/26 06:59:27;;;;;;;;;;;;;;;11.72;100.00;98171.19;5034341;28;19924;-39
2023/03/26 07:01:52;;;;;;;;;;;;;;;11.89;100.00;98188.41;5034138;28;19917;-40
2023/03/26 07:04:17;;;;;;;;;;;;;;;12.24;100.00;98187.53;5032381;28;20319;-40
2023/03/26 07:06:43;;;;;;;;;;;;;;;12.39;100.00;98178.16;5034295;28;20155;-40
2023/03/26 07:09:08;;;;;;;;;;;;;;;11.53;100.00;98178.16;5034642;28;19928;-40
2023/03/26 07:11:33;;;;;;;;;;;;;;;12.00;100.00;98184.47;5033850;28;19927;-39
2023/03/26 07:13:58;;;;;;;;;;;;;;;12.08;100.00;98172.00;5032426;28;20135;-40
2023/03/26 07:16:24;;;;;;;;;;;;;;;12.53;100.00;98162.75;5034850;28;19916;-39
2023/03/26 07:18:49;;;;;;;;;;;;;;;11.80;100.00;98146.75;5035092;28;20374;-40
2023/03/26 07:21:15;;;;;;;;;;;;;;;11.94;100.00;98154.63;5034381;28;20007;-40
2023/03/26 07:23:40;;;;;;;;;;;;;;;12.97;100.00;98162.91;5037922;28;20318;-41
2023/03/26 07:26:21;;;;;;;;;;;;;;;12.74;100.00;98140.91;5036838;28;19925;-40
2023/03/26 07:28:47;;;;;;;;;;;;;;;13.31;100.00;98093.84;5038629;28;20023;-40
2023/03/26 07:31:12;;;;;;;;;;;;;;;11.88;100.00;98055.19;5037078;28;19976;-39
2023/03/26 07:33:49;;;;;;;;;;;;;;;12.43;100.00;98107.34;5037302;28;19928;-40
2023/03/26 07:36:29;;;;;;;;;;;;;;;12.32;100.00;98178.47;5035421;28;19920;-39
2023/03/26 07:39:18;;;;;;;;;;;;;;;11.88;100.00;98185.91;5037358;28;19982;-40
2023/03/26 07:41:43;;;;;;;;;;;;;;;12.13;100.00;98222.47;5029310;28;19921;-40
2023/03/26 07:44:17;;;;;;;;;;;;;;;12.75;100.00;98227.03;5036088;28;19921;-39
2023/03/26 07:46:42;;;;;;;;;;;;;;;12.73;100.00;98221.94;5038592;28;19916;-39
2023/03/26 07:49:09;;;;;;;;;;;;;;;12.44;100.00;98194.22;5038789;28;20391;-39
2023/03/26 07:51:35;;;;;;;;;;;;;;;12.03;100.00;98203.19;5037455;28;20355;-40
2023/03/26 07:54:02;;;;;;;;;;;;;;;11.70;100.00;98232.31;5037556;28;19929;-40
2023/03/26 07:56:36;;;;;;;;;;;;;;;12.91;100.00;98270.97;5036965;28;19924;-40
2023/03/26 07:59:20;;;;;;;;;;;;;;;12.79;100.00;98246.59;5036173;28;19917;-39
2023/03/26 08:01:51;;;;;;;;;;;;;;;12.62;100.00;98281.09;5038413;28;20370;-39
2023/03/26 08:04:46;;;;;;;;;;;;;;;12.79;100.00;98236.25;5036654;28;20284;-39
2023/03/26 08:07:17;;;;;;;;;;;;;;;13.62;100.00;98198.13;5024548;28;19920;-40
2023/03/26 08:09:54;;;;;;;;;;;;;;;13.61;100.00;98162.81;5037892;28;20078;-40
2023/03/26 08:12:25;;;;;;;;;;;;;;;13.12;100.00;98125.06;5037086;28;19917;-40
2023/03/26 08:14:50;;;;;;;;;;;;;;;12.39;100.00;98122.19;5036651;28;19975;-48
2023/03/26 08:17:15;;;;;;;;;;;;;;;12.61;100.00;98165.75;5038070;28;19917;-40
2023/03/26 08:19:48;;;;;;;;;;;;;;;12.36;100.00;98192.03;5037709;28;20418;-39
2023/03/26 08:22:30;;;;;;;;;;;;;;;12.44;100.00;98220.88;5036412;28;19917;-40
2023/03/26 08:25:00;;;;;;;;;;;;;;;12.29;100.00;98239.75;5034322;28;20312;-40
2023/03/26 08:27:36;;;;;;;;;;;;;;;11.84;100.00;98247.13;5034289;28;19932;-40
2023/03/26 08:30:07;;;;;;;;;;;;;;;13.01;100.00;98276.50;5036524;28;20344;-40
2023/03/26 08:32:33;;;;;;;;;;;;;;;12.59;100.00;98264.91;5034690;28;19966;-40
2023/03/26 08:34:59;;;;;;;;;;;;;;;13.05;100.00;98252.16;5033075;28;19921;-40
2023/03/26 08:37:26;;;;;;;;;;;;;;;12.70;100.00;98177.34;5034143;28;19928;-40
2023/03/26 08:39:51;;;;;;;;;;;;;;;13.59;100.00;98183.63;5034981;28;19924;-40
2023/03/26 08:42:16;;;;;;;;;;;;;;;13.28;100.00;98127.63;5035120;28;21844;-40
2023/03/26 08:45:00;;;;;;;;;;;;;;;13.18;100.00;98108.34;5032592;28;19925;-40
2023/03/26 08:47:28;;;;;;;;;;;;;;;12.78;100.00;98120.94;5035507;28;20322;-40
2023/03/26 08:50:12;;;;;;;;;;;;;;;12.88;100.00;98155.66;5035323;28;19916;-40
2023/03/26 08:52:50;;;;;;;;;;;;;;;12.81;100.00;98171.59;5037371;28;19921;-40
2023/03/26 08:55:24;;;;;;;;;;;;;;;12.72;100.00;98198.75;5034102;28;19924;-40
2023/03/26 08:58:02;;;;;;;;;;;;;;;12.50;100.00;98153.44;5037336;28;19948;-40
2023/03/26 09:00:30;;;;;;;;;;;;;;;11.90;100.00;98184.06;5034543;28;20031;-40
2023/03/26 09:03:13;;;;;;;;;;;;;;;12.92;100.00;98278.63;5035053;28;19920;-40
2023/03/26 09:05:47;;;;;;;;;;;;;;;13.12;100.00;98269.00;5034913;28;19931;-40
2023/03/26 09:08:31;;;;;;;;;;;;;;;14.52;100.00;98212.66;5039893;28;19959;-40
2023/03/26 09:10:59;;;;;;;;;;;;;;;12.60;100.00;98071.09;5039322;28;19921;-40
2023/03/26 09:13:42;;;;;;;;;;;;;;;12.30;100.00;98151.06;5040049;28;19917;-39
2023/03/26 09:16:18;;;;;;;;;;;;;;;13.67;100.00;98209.03;5038175;28;19924;-40
2023/03/26 09:18:52;;;;;;;;;;;;;;;13.32;100.00;98123.97;5038420;28;20024;-40
2023/03/26 09:21:26;;;;;;;;;;;;;;;14.66;100.00;98089.22;5038875;28;20476;-39
2023/03/26 09:23:52;;;;;;;;;;;;;;;12.68;100.00;98060.34;5037008;28;19916;-40
2023/03/26 09:26:24;;;;;;;;;;;;;;;13.29;100.00;98156.91;5038671;28;19935;-40
2023/03/26 09:29:02;;;;;;;;;;;;;;;12.83;100.00;98165.44;5037097;28;19966;-39
2023/03/26 09:31:46;;;;;;;;;;;;;;;12.66;100.00;98152.63;5038111;28;19928;-39
2023/03/26 09:34:21;;;;;;;;;;;;;;;12.62;100.00;98151.09;5037994;28;20389;-40
2023/03/26 09:36:51;;;;;;;;;;;;;;;13.49;100.00;98174.69;5039355;28;19923;-39
2023/03/26 09:39:32;;;;;;;;;;;;;;;13.92;100.00;98133.41;5039494;28;20688;-41
2023/03/26 09:41:57;;;;;;;;;;;;;;;12.85;100.00;98062.00;5038271;28;19931;-39
2023/03/26 09:44:49;;;;;;;;;;;;;;;13.71;100.00;98143.25;5035316;28;19913;-39
2023/03/26 09:47:20;;;;;;;;;;;;;;;12.72;100.00;98172.94;5037001;28;19917;-40
2023/03/26 09:49:45;;;;;;;;;;;;;;;13.09;100.00;98160.56;5038449;28;20627;-40
2023/03/26 09:52:33;;;;;;;;;;;;;;;12.60;100.00;98148.59;5038674;28;19943;-40
2023/03/26 09:55:07;;;;;;;;;;;;;;;13.10;100.00;98178.59;5034545;28;19920;-40
2023/03/26 09:57:52;;;;;;;;;;;;;;;13.24;100.00;98211.44;5038733;28;19924;-40
2023/03/26 10:00:20;;;;;;;;;;;;;;;13.09;100.00;98196.75;5038338;28;20680;-39
2023/03/26 10:02:48;;;;;;;;;;;;;;;13.89;100.00;98233.66;5036874;28;19923;-40
2023/03/26 10:05:19;;;;;;;;;;;;;;;13.90;100.00;98144.75;5038446;28;20560;-40
2023/03/26 10:07:44;;;;;;;;;;;;;;;14.87;100.00;98082.69;5021000;28;20479;-39
2023/03/26 10:10:14;;;;;;;;;;;;;;;14.00;100.00;97951.72;5037499;28;19921;-40
2023/03/26 10:12:42;;;;;;;;;;;;;;;14.38;100.00;97940.69;5037844;28;20003;-40
2023/03/26 10:15:08;;;;;;;;;;;;;;;14.09;100.00;97899.38;5036613;28;19931;-40
2023/03/26 10:17:42;;;;;;;;;;;;;;;13.70;100.00;97892.38;5037322;28;19920;-40
2023/03/26 10:20:08;;;;;;;;;;;;;;;14.17;100.00;97879.00;5038310;28;19925;-40
2023/03/26 10:22:39;;;;;;;;;;;;;;;14.19;100.00;97838.31;5036622;28;20000;-40
2023/03/26 10:25:07;;;;;;;;;;;;;;;13.48;100.00;97848.88;5036568;28;19917;-40
2023/03/26 10:27:53;;;;;;;;;;;;;;;13.85;100.00;97875.06;5038030;28;20003;-40
2023/03/26 10:30:44;;;;;;;;;;;;;;;14.69;100.00;97853.19;5006508;28;19917;-40
2023/03/26 10:33:18;;;;;;;;;;;;;;;14.56;100.00;97846.25;5020851;28;19921;-39
2023/03/26 10:35:46;;;;;;;;;;;;;;;14.64;100.00;97849.19;5036943;28;19921;-39
2023/03/26 10:38:15;;;;;;;;;;;;;;;14.93;100.00;97807.47;5036328;28;19927;-39
2023/03/26 10:40:43;;;;;;;;;;;;;;;14.03;100.00;97783.28;5035861;28;19916;-39
2023/03/26 10:43:27;;;;;;;;;;;;;;;14.96;100.00;97806.44;5036455;28;19916;-39
2023/03/26 10:45:58;;;;;;;;;;;;;;;14.54;100.00;97811.84;5037117;28;19920;-39
2023/03/26 10:48:26;;;;;;;;;;;;;;;14.69;100.00;97801.38;5036189;28;19927;-39
2023/03/26 10:51:27;;;;;;;;;;;;;;;15.06;100.00;97821.25;5037934;28;19966;-40
2023/03/26 10:53:55;;;;;;;;;;;;;;;13.52;100.00;97812.38;4993701;28;19992;-40
2023/03/26 10:56:24;;;;;;;;;;;;;;;13.26;100.00;97899.31;5029065;28;19916;-40
2023/03/26 10:58:49;;;;;;;;;;;;;;;13.01;100.00;97948.25;5036362;28;19923;-40
2023/03/26 11:01:18;;;;;;;;;;;;;;;12.98;100.00;98014.69;5038034;28;20015;-39
2023/03/26 11:03:53;;;;;;;;;;;;;;;13.47;100.00;98061.91;5036067;28;19978;-40
2023/03/26 11:06:25;;;;;;;;;;;;;;;14.01;100.00;98050.00;5035363;28;19928;-40
2023/03/26 11:09:19;;;;;;;;;;;;;;;14.48;100.00;98000.50;5036859;28;19963;-40
2023/03/26 11:11:51;;;;;;;;;;;;;;;13.38;100.00;97866.75;5016869;28;19917;-40
2023/03/26 11:14:20;;;;;;;;;;;;;;;13.98;100.00;97922.50;5034985;28;19963;-40
2023/03/26 11:17:03;;;;;;;;;;;;;;;14.28;100.00;97867.09;5019352;28;19965;-40
2023/03/26 11:19:37;;;;;;;;;;;;;;;15.21;100.00;97831.50;5036848;28;19913;-40
2023/03/26 11:22:05;;;;;;;;;;;;;;;14.62;100.00;97804.41;5036703;28;19913;-40
2023/03/26 11:24:49;;;;;;;;;;;;;;;14.66;100.00;97779.09;5034756;28;19916;-40
2023/03/26 11:27:41;;;;;;;;;;;;;;;13.42;100.00;97824.25;5037225;28;19917;-40
2023/03/26 11:30:09;;;;;;;;;;;;;;;13.54;100.00;97869.22;5035085;28;19957;-40
2023/03/26 11:32:38;;;;;;;;;;;;;;;14.20;100.00;97860.66;5037187;28;19916;-40
2023/03/26 11:35:24;;;;;;;;;;;;;;;15.05;100.00;97831.72;5035230;28;19917;-40
2023/03/26 11:37:51;;;;;;;;;;;;;;;12.88;100.00;97830.09;5037841;28;19971;-40
2023/03/26 11:40:24;;;;;;;;;;;;;;;13.21;100.00;97906.53;5036559;28;20922;-40
2023/03/26 11:42:50;;;;;;;;;;;;;;;13.92;100.00;97918.56;5035581;28;19920;-39
2023/03/26 11:45:17;;;;;;;;;;;;;;;13.94;100.00;97913.31;5033817;28;19999;-40
2023/03/26 11:47:47;;;;;;;;;;;;;;;12.67;100.00;97881.28;5036037;28;20526;-40
2023/03/26 11:50:17;;;;;;;;;;;;;;;13.09;100.00;98010.63;5035266;28;19931;-39
2023/03/26 11:52:42;;;;;;;;;;;;;;;12.85;100.00;98085.25;5035958;28;19920;-39
2023/03/26 11:55:10;;;;;;;;;;;;;;;12.80;100.00;98113.94;5034906;28;19920;-40
2023/03/26 11:57:35;;;;;;;;;;;;;;;13.08;100.00;98169.25;5037495;28;20400;-40
2023/03/26 12:00:07;;;;;;;;;;;;;;;13.72;100.00;98137.16;5037104;28;19917;-40
2023/03/26 12:02:39;;;;;;;;;;;;;;;12.93;100.00;98104.59;5035551;28;20024;-40
2023/03/26 12:05:13;;;;;;;;;;;;;;;12.79;100.00;98065.75;5037130;28;19916;-40
2023/03/26 12:07:45;;;;;;;;;;;;;;;13.37;100.00;98111.59;5038440;28;19916;-40
2023/03/26 12:10:31;;;;;;;;;;;;;;;13.34;100.00;98092.81;5041159;28;19928;-39
2023/03/26 12:12:58;;;;;;;;;;;;;;;13.34;100.00;98077.31;5029450;28;19956;-40
2023/03/26 12:15:23;;;;;;;;;;;;;;;12.73;100.00;97983.44;5038457;28;20644;-40
2023/03/26 12:17:52;;;;;;;;;;;;;;;13.70;100.00;97988.94;5040937;28;19938;-40
2023/03/26 12:20:26;;;;;;;;;;;;;;;13.41;100.00;97964.00;5041019;28;19921;-40
2023/03/26 12:23:03;;;;;;;;;;;;;;;13.94;100.00;97905.53;5040484;28;19917;-39
2023/03/26 12:25:33;;;;;;;;;;;;;;;14.44;100.00;97821.16;5038404;28;20007;-40
2023/03/26 12:28:16;;;;;;;;;;;;;;;13.52;100.00;97785.69;5040704;28;20967;-40
2023/03/26 12:30:49;;;;;;;;;;;;;;;12.86;100.00;97769.91;5039558;28;19917;-40
2023/03/26 12:33:18;;;;;;;;;;;;;;;14.11;100.00;97762.88;5037800;28;20004;-40
2023/03/26 12:35:44;;;;;;;;;;;;;;;14.09;100.00;97748.38;5021711;28;19916;-40
2023/03/26 12:38:12;;;;;;;;;;;;;;;14.57;100.00;97743.44;5039103;28;20266;-40
2023/03/26 12:40:38;;;;;;;;;;;;;;;14.76;100.00;97704.16;5039783;28;19944;-40
2023/03/26 12:43:24;;;;;;;;;;;;;;;15.42;100.00;97686.50;5039382;28;19921;-40
2023/03/26 12:45:50;;;;;;;;;;;;;;;15.22;100.00;97654.22;5038415;28;19923;-40
2023/03/26 12:48:15;;;;;;;;;;;;;;;14.42;100.00;97652.06;5040096;28;19917;-40